sensor_id;sensor_type;location;lat;lon;timestamp;pressure;altitude;pressure_sealevel;temperature;humidity
9774;BME280;4926;42.670;23.316;2023-11-19T00:01:04;94523.34;;;3.90;93.39
9774;BME280;4926;42.670;23.316;2023-11-19T00:03:34;94529.38;;;3.90;93.25
9774;BME280;4926;42.670;23.316;2023-11-19T00:06:01;94519.72;;;3.96;93.01
9774;BME280;4926;42.670;23.316;2023-11-19T00:08:29;94525.53;;;3.98;92.85
9774;BME280;4926;42.670;23.316;2023-11-19T00:11:02;94515.50;;;3.95;92.13
9774;BME280;4926;42.670;23.316;2023-11-19T00:13:32;94516.22;;;3.90;92.33
9774;BME280;4926;42.670;23.316;2023-11-19T00:16:01;94517.63;;;3.98;92.31
9774;BME280;4926;42.670;23.316;2023-11-19T00:18:29;94524.44;;;3.94;92.08
9774;BME280;4926;42.670;23.316;2023-11-19T00:20:56;94516.78;;;3.92;92.42
9774;BME280;4926;42.670;23.316;2023-11-19T00:23:23;94518.56;;;3.87;92.53
9774;BME280;4926;42.670;23.316;2023-11-19T00:25:50;94525.84;;;4.01;91.82
9774;BME280;4926;42.670;23.316;2023-11-19T00:28:18;94523.47;;;4.00;91.83
9774;BME280;4926;42.670;23.316;2023-11-19T00:30:45;94522.94;;;4.03;91.72
9774;BME280;4926;42.670;23.316;2023-11-19T00:33:12;94514.88;;;4.09;90.72
9774;BME280;4926;42.670;23.316;2023-11-19T00:35:39;94521.78;;;3.94;90.67
9774;BME280;4926;42.670;23.316;2023-11-19T00:38:06;94524.72;;;3.97;90.50
9774;BME280;4926;42.670;23.316;2023-11-19T00:40:33;94533.38;;;3.93;90.50
9774;BME280;4926;42.670;23.316;2023-11-19T00:43:00;94534.44;;;3.92;90.82
9774;BME280;4926;42.670;23.316;2023-11-19T00:45:29;94538.94;;;3.96;90.60
9774;BME280;4926;42.670;23.316;2023-11-19T00:47:56;94529.16;;;3.92;91.11
9774;BME280;4926;42.670;23.316;2023-11-19T00:50:24;94539.16;;;3.90;91.70
9774;BME280;4926;42.670;23.316;2023-11-19T00:52:51;94529.63;;;3.89;91.60
9774;BME280;4926;42.670;23.316;2023-11-19T00:55:20;94528.13;;;3.93;92.01
9774;BME280;4926;42.670;23.316;2023-11-19T00:57:47;94522.84;;;3.93;91.77
9774;BME280;4926;42.670;23.316;2023-11-19T01:00:15;94518.56;;;3.87;91.74
9774;BME280;4926;42.670;23.316;2023-11-19T01:02:45;94528.00;;;3.83;92.10
9774;BME280;4926;42.670;23.316;2023-11-19T01:05:12;94527.69;;;3.79;93.04
9774;BME280;4926;42.670;23.316;2023-11-19T01:07:40;94522.25;;;3.86;92.80
9774;BME280;4926;42.670;23.316;2023-11-19T01:10:07;94533.75;;;3.80;92.37
9774;BME280;4926;42.670;23.316;2023-11-19T01:12:35;94536.47;;;3.85;92.62
9774;BME280;4926;42.670;23.316;2023-11-19T01:15:03;94542.75;;;3.84;91.95
9774;BME280;4926;42.670;23.316;2023-11-19T01:17:30;94543.44;;;3.74;93.47
9774;BME280;4926;42.670;23.316;2023-11-19T01:20:02;94530.94;;;3.65;93.30
9774;BME280;4926;42.670;23.316;2023-11-19T01:22:34;94538.09;;;3.69;94.23
9774;BME280;4926;42.670;23.316;2023-11-19T01:25:01;94529.97;;;3.71;94.17
9774;BME280;4926;42.670;23.316;2023-11-19T01:27:32;94535.53;;;3.74;93.66
9774;BME280;4926;42.670;23.316;2023-11-19T01:30:04;94546.47;;;3.66;93.63
9774;BME280;4926;42.670;23.316;2023-11-19T01:32:31;94544.75;;;3.77;93.37
9774;BME280;4926;42.670;23.316;2023-11-19T01:35:02;94555.66;;;3.85;92.48
9774;BME280;4926;42.670;23.316;2023-11-19T01:37:29;94554.03;;;3.79;92.26
9774;BME280;4926;42.670;23.316;2023-11-19T01:39:58;94564.13;;;3.87;91.81
9774;BME280;4926;42.670;23.316;2023-11-19T01:42:25;94554.03;;;3.79;90.80
9774;BME280;4926;42.670;23.316;2023-11-19T01:45:00;94544.81;;;3.82;91.08
9774;BME280;4926;42.670;23.316;2023-11-19T01:47:28;94554.13;;;3.89;90.31
9774;BME280;4926;42.670;23.316;2023-11-19T01:49:56;94555.66;;;3.85;89.56
9774;BME280;4926;42.670;23.316;2023-11-19T01:52:27;94554.94;;;3.90;89.03
9774;BME280;4926;42.670;23.316;2023-11-19T01:54:55;94565.94;;;3.87;88.56
9774;BME280;4926;42.670;23.316;2023-11-19T01:57:26;94567.50;;;3.83;88.87
9774;BME280;4926;42.670;23.316;2023-11-19T01:59:53;94564.38;;;3.86;88.42
9774;BME280;4926;42.670;23.316;2023-11-19T02:02:23;94557.03;;;3.88;88.18
9774;BME280;4926;42.670;23.316;2023-11-19T02:04:50;94564.16;;;3.92;87.61
9774;BME280;4926;42.670;23.316;2023-11-19T02:07:21;94543.25;;;3.81;87.42
9774;BME280;4926;42.670;23.316;2023-11-19T02:09:52;94541.63;;;3.80;87.13
9774;BME280;4926;42.670;23.316;2023-11-19T02:12:19;94525.31;;;3.78;86.77
9774;BME280;4926;42.670;23.316;2023-11-19T02:14:46;94523.41;;;3.73;87.34
9774;BME280;4926;42.670;23.316;2023-11-19T02:17:25;94522.59;;;3.73;87.18
9774;BME280;4926;42.670;23.316;2023-11-19T02:19:52;94527.41;;;3.76;87.27
9774;BME280;4926;42.670;23.316;2023-11-19T02:22:19;94524.69;;;3.71;87.12
9774;BME280;4926;42.670;23.316;2023-11-19T02:24:50;94529.88;;;3.66;86.96
9774;BME280;4926;42.670;23.316;2023-11-19T02:27:24;94547.84;;;3.69;87.76
9774;BME280;4926;42.670;23.316;2023-11-19T02:29:56;94552.47;;;3.62;87.71
9774;BME280;4926;42.670;23.316;2023-11-19T02:32:23;94550.72;;;3.67;88.32
9774;BME280;4926;42.670;23.316;2023-11-19T02:34:53;94554.44;;;3.71;87.78
9774;BME280;4926;42.670;23.316;2023-11-19T02:37:21;94529.97;;;3.71;87.46
9774;BME280;4926;42.670;23.316;2023-11-19T02:39:47;94538.81;;;3.65;87.00
9774;BME280;4926;42.670;23.316;2023-11-19T02:42:17;94535.13;;;3.66;87.81
9774;BME280;4926;42.670;23.316;2023-11-19T02:44:44;94547.22;;;3.62;87.96
9774;BME280;4926;42.670;23.316;2023-11-19T02:47:15;94549.91;;;3.67;87.69
9774;BME280;4926;42.670;23.316;2023-11-19T02:49:45;94550.41;;;3.64;87.99
9774;BME280;4926;42.670;23.316;2023-11-19T02:52:13;94559.31;;;3.63;88.52
9774;BME280;4926;42.670;23.316;2023-11-19T02:54:40;94550.25;;;3.54;87.97
9774;BME280;4926;42.670;23.316;2023-11-19T02:57:07;94545.00;;;3.54;88.50
9774;BME280;4926;42.670;23.316;2023-11-19T02:59:40;94533.38;;;3.50;88.52
9774;BME280;4926;42.670;23.316;2023-11-19T03:02:09;94538.34;;;3.46;88.39
9774;BME280;4926;42.670;23.316;2023-11-19T03:04:38;94535.84;;;3.39;88.91
9774;BME280;4926;42.670;23.316;2023-11-19T03:07:06;94543.28;;;3.42;89.18
9774;BME280;4926;42.670;23.316;2023-11-19T03:09:37;94543.84;;;3.45;88.32
9774;BME280;4926;42.670;23.316;2023-11-19T03:12:09;94541.22;;;3.45;88.25
9774;BME280;4926;42.670;23.316;2023-11-19T03:14:36;94544.88;;;3.43;88.17
9774;BME280;4926;42.670;23.316;2023-11-19T03:17:03;94557.47;;;3.41;88.33
9774;BME280;4926;42.670;23.316;2023-11-19T03:19:30;94557.94;;;3.38;88.59
9774;BME280;4926;42.670;23.316;2023-11-19T03:21:58;94542.41;;;3.37;89.09
9774;BME280;4926;42.670;23.316;2023-11-19T03:24:25;94555.88;;;3.40;88.80
9774;BME280;4926;42.670;23.316;2023-11-19T03:26:53;94544.09;;;3.26;89.49
9774;BME280;4926;42.670;23.316;2023-11-19T03:29:22;94559.06;;;3.42;89.14
9774;BME280;4926;42.670;23.316;2023-11-19T03:31:49;94557.16;;;3.38;89.76
9774;BME280;4926;42.670;23.316;2023-11-19T03:34:16;94553.97;;;3.36;89.95
9774;BME280;4926;42.670;23.316;2023-11-19T03:36:43;94550.69;;;3.29;90.32
9774;BME280;4926;42.670;23.316;2023-11-19T03:39:12;94525.13;;;3.24;89.79
9774;BME280;4926;42.670;23.316;2023-11-19T03:41:39;94566.47;;;3.46;89.30
9774;BME280;4926;42.670;23.316;2023-11-19T03:44:06;94573.25;;;3.41;88.79
9774;BME280;4926;42.670;23.316;2023-11-19T03:46:32;94535.84;;;3.39;89.22
9774;BME280;4926;42.670;23.316;2023-11-19T03:49:00;94566.59;;;3.34;89.18
9774;BME280;4926;42.670;23.316;2023-11-19T03:51:27;94571.53;;;3.30;89.71
9774;BME280;4926;42.670;23.316;2023-11-19T03:53:54;94575.31;;;3.39;90.00
9774;BME280;4926;42.670;23.316;2023-11-19T03:56:24;94571.03;;;3.33;89.25
9774;BME280;4926;42.670;23.316;2023-11-19T03:58:50;94584.38;;;3.27;90.37
9774;BME280;4926;42.670;23.316;2023-11-19T04:01:19;94571.34;;;3.20;90.47
9774;BME280;4926;42.670;23.316;2023-11-19T04:03:46;94574.22;;;3.19;90.83
9774;BME280;4926;42.670;23.316;2023-11-19T04:06:12;94584.44;;;3.15;91.20
9774;BME280;4926;42.670;23.316;2023-11-19T04:08:39;94580.47;;;3.13;91.79
9774;BME280;4926;42.670;23.316;2023-11-19T04:11:07;94593.84;;;3.11;92.04
9774;BME280;4926;42.670;23.316;2023-11-19T04:13:38;94592.75;;;3.07;92.13
9774;BME280;4926;42.670;23.316;2023-11-19T04:16:08;94604.97;;;3.18;92.86
9774;BME280;4926;42.670;23.316;2023-11-19T04:18:37;94596.16;;;3.08;92.66
9774;BME280;4926;42.670;23.316;2023-11-19T04:21:07;94607.78;;;3.12;92.64
9774;BME280;4926;42.670;23.316;2023-11-19T04:23:33;94598.31;;;3.11;92.06
9774;BME280;4926;42.670;23.316;2023-11-19T04:26:04;94603.91;;;3.14;91.33
9774;BME280;4926;42.670;23.316;2023-11-19T04:28:32;94601.47;;;3.29;91.44
9774;BME280;4926;42.670;23.316;2023-11-19T04:31:00;94597.84;;;3.30;90.79
9774;BME280;4926;42.670;23.316;2023-11-19T04:33:28;94602.53;;;3.28;89.53
9774;BME280;4926;42.670;23.316;2023-11-19T04:35:55;94617.25;;;3.29;90.09
9774;BME280;4926;42.670;23.316;2023-11-19T04:38:22;94619.41;;;3.32;89.85
9774;BME280;4926;42.670;23.316;2023-11-19T04:40:51;94616.13;;;3.25;89.82
9774;BME280;4926;42.670;23.316;2023-11-19T04:43:18;94617.34;;;3.34;89.69
9774;BME280;4926;42.670;23.316;2023-11-19T04:45:49;94622.78;;;3.45;89.16
9774;BME280;4926;42.670;23.316;2023-11-19T04:48:18;94625.41;;;3.45;88.75
9774;BME280;4926;42.670;23.316;2023-11-19T04:50:44;94619.16;;;3.51;88.48
9774;BME280;4926;42.670;23.316;2023-11-19T04:53:16;94631.75;;;3.49;88.06
9774;BME280;4926;42.670;23.316;2023-11-19T04:55:52;94623.94;;;3.54;87.46
9774;BME280;4926;42.670;23.316;2023-11-19T04:58:19;94633.19;;;3.56;87.25
9774;BME280;4926;42.670;23.316;2023-11-19T05:00:49;94636.69;;;3.62;87.51
9774;BME280;4926;42.670;23.316;2023-11-19T05:03:16;94632.00;;;3.64;86.28
9774;BME280;4926;42.670;23.316;2023-11-19T05:05:46;94633.50;;;3.60;85.80
9774;BME280;4926;42.670;23.316;2023-11-19T05:08:14;94650.16;;;3.65;85.81
9774;BME280;4926;42.670;23.316;2023-11-19T05:10:41;94657.50;;;3.63;85.55
9774;BME280;4926;42.670;23.316;2023-11-19T05:13:08;94655.38;;;3.60;85.75
9774;BME280;4926;42.670;23.316;2023-11-19T05:15:35;94648.59;;;3.48;85.73
9774;BME280;4926;42.670;23.316;2023-11-19T05:18:03;94652.88;;;3.54;86.08
9774;BME280;4926;42.670;23.316;2023-11-19T05:20:31;94652.88;;;3.54;86.45
9774;BME280;4926;42.670;23.316;2023-11-19T05:23:02;94641.41;;;3.60;85.56
9774;BME280;4926;42.670;23.316;2023-11-19T05:25:28;94653.75;;;3.59;85.81
9774;BME280;4926;42.670;23.316;2023-11-19T05:27:55;94643.47;;;3.58;85.76
9774;BME280;4926;42.670;23.316;2023-11-19T05:30:24;94642.66;;;3.57;85.31
9774;BME280;4926;42.670;23.316;2023-11-19T05:32:51;94642.97;;;3.61;85.27
9774;BME280;4926;42.670;23.316;2023-11-19T05:35:19;94636.63;;;3.57;85.28
9774;BME280;4926;42.670;23.316;2023-11-19T05:37:46;94646.03;;;3.53;85.41
9774;BME280;4926;42.670;23.316;2023-11-19T05:40:17;94650.75;;;3.51;85.79
9774;BME280;4926;42.670;23.316;2023-11-19T05:42:44;94656.81;;;3.51;85.30
9774;BME280;4926;42.670;23.316;2023-11-19T05:45:14;94652.88;;;3.54;85.28
9774;BME280;4926;42.670;23.316;2023-11-19T05:47:44;94663.34;;;3.49;85.22
9774;BME280;4926;42.670;23.316;2023-11-19T05:50:13;94658.25;;;3.42;85.93
9774;BME280;4926;42.670;23.316;2023-11-19T05:52:40;94656.50;;;3.48;86.25
9774;BME280;4926;42.670;23.316;2023-11-19T05:55:09;94664.13;;;3.49;85.99
9774;BME280;4926;42.670;23.316;2023-11-19T05:57:38;94663.81;;;3.46;85.99
9774;BME280;4926;42.670;23.316;2023-11-19T06:00:07;94663.75;;;3.40;86.29
9774;BME280;4926;42.670;23.316;2023-11-19T06:02:36;94671.00;;;3.33;86.99
9774;BME280;4926;42.670;23.316;2023-11-19T06:05:04;94674.66;;;3.32;87.04
9774;BME280;4926;42.670;23.316;2023-11-19T06:07:35;94678.88;;;3.33;87.42
9774;BME280;4926;42.670;23.316;2023-11-19T06:10:05;94694.25;;;3.41;87.27
9774;BME280;4926;42.670;23.316;2023-11-19T06:12:35;94688.94;;;3.36;87.48
9774;BME280;4926;42.670;23.316;2023-11-19T06:15:08;94686.78;;;3.33;88.04
9774;BME280;4926;42.670;23.316;2023-11-19T06:17:35;94677.53;;;3.31;87.25
9774;BME280;4926;42.670;23.316;2023-11-19T06:20:03;94679.91;;;3.32;87.08
9774;BME280;4926;42.670;23.316;2023-11-19T06:22:30;94681.53;;;3.33;87.90
9774;BME280;4926;42.670;23.316;2023-11-19T06:24:57;94676.25;;;3.33;87.59
9774;BME280;4926;42.670;23.316;2023-11-19T06:27:25;94636.22;;;3.15;87.22
9774;BME280;4926;42.670;23.316;2023-11-19T06:29:52;94678.31;;;3.31;87.28
9774;BME280;4926;42.670;23.316;2023-11-19T06:32:20;94688.69;;;3.21;87.86
9774;BME280;4926;42.670;23.316;2023-11-19T06:34:47;94681.91;;;3.25;88.08
9774;BME280;4926;42.670;23.316;2023-11-19T06:37:14;94677.28;;;3.32;88.13
9774;BME280;4926;42.670;23.316;2023-11-19T06:39:51;94684.72;;;3.35;87.68
9774;BME280;4926;42.670;23.316;2023-11-19T06:42:18;94677.38;;;3.37;88.05
9774;BME280;4926;42.670;23.316;2023-11-19T06:44:49;94690.75;;;3.36;87.29
9774;BME280;4926;42.670;23.316;2023-11-19T06:47:16;94669.25;;;3.39;86.25
9774;BME280;4926;42.670;23.316;2023-11-19T06:49:51;94678.81;;;3.28;86.68
9774;BME280;4926;42.670;23.316;2023-11-19T06:52:18;94690.44;;;3.16;86.55
9774;BME280;4926;42.670;23.316;2023-11-19T06:54:47;94687.41;;;3.24;87.34
9774;BME280;4926;42.670;23.316;2023-11-19T06:57:14;94685.19;;;3.16;87.06
9774;BME280;4926;42.670;23.316;2023-11-19T06:59:41;94689.69;;;3.04;87.72
9774;BME280;4926;42.670;23.316;2023-11-19T07:02:08;94705.09;;;3.12;88.03
9774;BME280;4926;42.670;23.316;2023-11-19T07:04:35;94707.47;;;3.13;86.96
9774;BME280;4926;42.670;23.316;2023-11-19T07:07:03;94694.72;;;3.05;86.14
9774;BME280;4926;42.670;23.316;2023-11-19T07:09:33;94696.31;;;3.06;86.74
9774;BME280;4926;42.670;23.316;2023-11-19T07:12:00;94693.84;;;3.00;86.48
9774;BME280;4926;42.670;23.316;2023-11-19T07:14:32;94697.91;;;3.07;86.48
9774;BME280;4926;42.670;23.316;2023-11-19T07:16:59;94688.50;;;3.11;86.34
9774;BME280;4926;42.670;23.316;2023-11-19T07:19:26;94693.75;;;3.11;86.04
9774;BME280;4926;42.670;23.316;2023-11-19T07:21:55;94694.00;;;3.10;86.32
9774;BME280;4926;42.670;23.316;2023-11-19T07:24:26;94701.28;;;3.19;86.48
9774;BME280;4926;42.670;23.316;2023-11-19T07:26:54;94695.22;;;3.19;85.65
9774;BME280;4926;42.670;23.316;2023-11-19T07:29:21;94714.34;;;3.14;85.85
9774;BME280;4926;42.670;23.316;2023-11-19T07:31:48;94725.31;;;3.11;86.00
9774;BME280;4926;42.670;23.316;2023-11-19T07:34:15;94722.81;;;3.16;84.92
9774;BME280;4926;42.670;23.316;2023-11-19T07:36:42;94736.97;;;3.15;84.47
9774;BME280;4926;42.670;23.316;2023-11-19T07:39:09;94736.97;;;3.15;84.80
9774;BME280;4926;42.670;23.316;2023-11-19T07:41:37;94729.63;;;3.17;84.82
9774;BME280;4926;42.670;23.316;2023-11-19T07:44:04;94733.78;;;3.13;84.85
9774;BME280;4926;42.670;23.316;2023-11-19T07:46:31;94742.06;;;3.22;86.09
9774;BME280;4926;42.670;23.316;2023-11-19T07:48:59;94741.06;;;3.39;84.83
9774;BME280;4926;42.670;23.316;2023-11-19T07:51:28;94732.06;;;3.35;83.83
9774;BME280;4926;42.670;23.316;2023-11-19T07:53:55;94732.44;;;3.27;83.65
9774;BME280;4926;42.670;23.316;2023-11-19T07:56:21;94738.09;;;3.36;83.49
9774;BME280;4926;42.670;23.316;2023-11-19T07:58:50;94753.44;;;3.56;86.83
9774;BME280;4926;42.670;23.316;2023-11-19T08:01:17;94734.31;;;3.60;83.93
9774;BME280;4926;42.670;23.316;2023-11-19T08:03:44;94729.19;;;3.54;82.39
9774;BME280;4926;42.670;23.316;2023-11-19T08:06:11;94742.47;;;3.59;82.24
9774;BME280;4926;42.670;23.316;2023-11-19T08:08:38;94734.78;;;3.57;81.27
9774;BME280;4926;42.670;23.316;2023-11-19T08:11:05;94743.00;;;3.61;80.96
9774;BME280;4926;42.670;23.316;2023-11-19T08:13:32;94738.78;;;3.60;80.35
9774;BME280;4926;42.670;23.316;2023-11-19T08:16:00;94744.13;;;3.65;80.74
9774;BME280;4926;42.670;23.316;2023-11-19T08:18:30;94744.03;;;3.60;80.30
9774;BME280;4926;42.670;23.316;2023-11-19T08:20:57;94752.81;;;3.65;80.90
9774;BME280;4926;42.670;23.316;2023-11-19T08:23:26;94748.56;;;3.64;80.86
9774;BME280;4926;42.670;23.316;2023-11-19T08:25:54;94744.19;;;3.70;80.77
9774;BME280;4926;42.670;23.316;2023-11-19T08:28:23;94753.63;;;3.82;80.56
9774;BME280;4926;42.670;23.316;2023-11-19T08:30:55;94747.72;;;3.92;79.71
9774;BME280;4926;42.670;23.316;2023-11-19T08:33:23;94743.72;;;3.89;79.73
9774;BME280;4926;42.670;23.316;2023-11-19T08:35:52;94744.19;;;4.03;79.08
9774;BME280;4926;42.670;23.316;2023-11-19T08:38:21;94754.88;;;3.96;78.24
9774;BME280;4926;42.670;23.316;2023-11-19T08:40:51;94761.75;;;3.81;78.24
9774;BME280;4926;42.670;23.316;2023-11-19T08:43:18;94759.38;;;3.79;78.89
9774;BME280;4926;42.670;23.316;2023-11-19T08:45:45;94753.13;;;3.69;78.93
9774;BME280;4926;42.670;23.316;2023-11-19T08:48:12;94755.28;;;3.72;79.56
9774;BME280;4926;42.670;23.316;2023-11-19T08:50:42;94759.69;;;3.83;79.13
9774;BME280;4926;42.670;23.316;2023-11-19T08:53:09;94750.41;;;3.80;78.88
9774;BME280;4926;42.670;23.316;2023-11-19T08:55:37;94752.66;;;3.88;78.63
9774;BME280;4926;42.670;23.316;2023-11-19T08:58:15;94772.13;;;3.87;77.73
9774;BME280;4926;42.670;23.316;2023-11-19T09:00:41;94750.66;;;3.79;77.35
9774;BME280;4926;42.670;23.316;2023-11-19T09:03:08;94746.44;;;3.78;77.06
9774;BME280;4926;42.670;23.316;2023-11-19T09:05:40;94736.38;;;3.75;78.19
9774;BME280;4926;42.670;23.316;2023-11-19T09:08:07;94733.50;;;3.93;78.12
9774;BME280;4926;42.670;23.316;2023-11-19T09:10:34;94739.72;;;4.03;77.86
9774;BME280;4926;42.670;23.316;2023-11-19T09:13:01;94731.06;;;4.08;77.37
9774;BME280;4926;42.670;23.316;2023-11-19T09:15:27;94727.31;;;4.20;77.17
9774;BME280;4926;42.670;23.316;2023-11-19T09:17:56;94718.06;;;4.18;76.48
9774;BME280;4926;42.670;23.316;2023-11-19T09:20:24;94716.25;;;4.02;76.66
9774;BME280;4926;42.670;23.316;2023-11-19T09:22:53;94736.69;;;3.95;75.84
9774;BME280;4926;42.670;23.316;2023-11-19T09:25:19;94746.50;;;3.99;76.57
9774;BME280;4926;42.670;23.316;2023-11-19T09:27:48;94753.06;;;3.97;75.97
9774;BME280;4926;42.670;23.316;2023-11-19T09:30:20;94757.28;;;3.98;77.03
9774;BME280;4926;42.670;23.316;2023-11-19T09:32:48;94755.50;;;3.87;76.73
9774;BME280;4926;42.670;23.316;2023-11-19T09:35:17;94737.19;;;3.92;77.22
9774;BME280;4926;42.670;23.316;2023-11-19T09:37:44;94747.31;;;4.00;77.28
9774;BME280;4926;42.670;23.316;2023-11-19T09:40:14;94719.44;;;4.04;76.27
9774;BME280;4926;42.670;23.316;2023-11-19T09:42:44;94697.75;;;3.97;76.51
9774;BME280;4926;42.670;23.316;2023-11-19T09:45:14;94710.75;;;4.03;75.98
9774;BME280;4926;42.670;23.316;2023-11-19T09:47:43;94709.25;;;3.91;76.21
9774;BME280;4926;42.670;23.316;2023-11-19T09:50:16;94702.41;;;3.90;77.28
9774;BME280;4926;42.670;23.316;2023-11-19T09:52:46;94692.88;;;3.89;77.01
9774;BME280;4926;42.670;23.316;2023-11-19T09:55:15;94681.47;;;4.00;78.11
9774;BME280;4926;42.670;23.316;2023-11-19T09:57:43;94680.50;;;4.06;77.00
9774;BME280;4926;42.670;23.316;2023-11-19T10:00:12;94683.97;;;4.11;77.35
9774;BME280;4926;42.670;23.316;2023-11-19T10:02:44;94677.88;;;4.27;76.83
9774;BME280;4926;42.670;23.316;2023-11-19T10:05:13;94684.56;;;4.35;76.21
9774;BME280;4926;42.670;23.316;2023-11-19T10:07:40;94668.31;;;4.65;75.56
9774;BME280;4926;42.670;23.316;2023-11-19T10:10:08;94658.41;;;4.77;74.63
9774;BME280;4926;42.670;23.316;2023-11-19T10:12:44;94671.41;;;4.83;74.27
9774;BME280;4926;42.670;23.316;2023-11-19T10:15:19;94664.84;;;4.86;74.46
9774;BME280;4926;42.670;23.316;2023-11-19T10:17:49;94668.66;;;4.73;74.18
9774;BME280;4926;42.670;23.316;2023-11-19T10:20:17;94678.75;;;4.81;73.23
9774;BME280;4926;42.670;23.316;2023-11-19T10:22:43;94681.63;;;4.80;72.23
9774;BME280;4926;42.670;23.316;2023-11-19T10:25:25;94681.94;;;4.83;72.03
9774;BME280;4926;42.670;23.316;2023-11-19T10:27:56;94682.00;;;4.88;72.31
9774;BME280;4926;42.670;23.316;2023-11-19T10:30:24;94670.97;;;4.91;72.34
9774;BME280;4926;42.670;23.316;2023-11-19T10:33:03;94652.19;;;5.14;71.84
9774;BME280;4926;42.670;23.316;2023-11-19T10:35:31;94639.78;;;5.15;70.91
9774;BME280;4926;42.670;23.316;2023-11-19T10:38:15;94649.44;;;5.31;70.71
9774;BME280;4926;42.670;23.316;2023-11-19T10:40:42;94647.00;;;5.24;70.85
9774;BME280;4926;42.670;23.316;2023-11-19T10:43:12;94653.78;;;5.15;70.44
9774;BME280;4926;42.670;23.316;2023-11-19T10:45:39;94663.75;;;5.08;71.00
9774;BME280;4926;42.670;23.316;2023-11-19T10:48:07;94662.78;;;5.19;70.38
9774;BME280;4926;42.670;23.316;2023-11-19T10:50:36;94654.44;;;5.32;70.60
9774;BME280;4926;42.670;23.316;2023-11-19T10:53:05;94665.59;;;5.39;70.06
9774;BME280;4926;42.670;23.316;2023-11-19T10:55:36;94649.31;;;5.47;70.17
9774;BME280;4926;42.670;23.316;2023-11-19T10:58:04;94643.53;;;5.55;69.78
9774;BME280;4926;42.670;23.316;2023-11-19T11:00:41;94648.84;;;5.55;69.83
9774;BME280;4926;42.670;23.316;2023-11-19T11:03:14;94641.81;;;5.71;68.94
9774;BME280;4926;42.670;23.316;2023-11-19T11:05:42;94626.19;;;5.64;67.87
9774;BME280;4926;42.670;23.316;2023-11-19T11:08:14;94625.09;;;5.60;68.11
9774;BME280;4926;42.670;23.316;2023-11-19T11:10:44;94601.84;;;5.57;67.82
9774;BME280;4926;42.670;23.316;2023-11-19T11:13:13;94604.91;;;5.44;67.65
9774;BME280;4926;42.670;23.316;2023-11-19T11:15:42;94601.22;;;5.40;68.11
9774;BME280;4926;42.670;23.316;2023-11-19T11:18:09;94601.69;;;5.37;68.67
9774;BME280;4926;42.670;23.316;2023-11-19T11:20:36;94594.53;;;5.28;68.99
9774;BME280;4926;42.670;23.316;2023-11-19T11:23:29;94602.63;;;5.21;69.45
9774;BME280;4926;42.670;23.316;2023-11-19T11:26:20;94563.41;;;4.98;69.45
9774;BME280;4926;42.670;23.316;2023-11-19T11:28:56;94612.97;;;5.23;69.00
9774;BME280;4926;42.670;23.316;2023-11-19T11:31:34;94597.06;;;5.18;68.74
9774;BME280;4926;42.670;23.316;2023-11-19T11:37:10;94606.00;;;5.12;70.35
9774;BME280;4926;42.670;23.316;2023-11-19T11:39:41;94611.63;;;5.25;70.38
9774;BME280;4926;42.670;23.316;2023-11-19T11:42:33;94593.00;;;5.37;69.42
9774;BME280;4926;42.670;23.316;2023-11-19T11:45:05;94588.50;;;5.37;69.42
9774;BME280;4926;42.670;23.316;2023-11-19T11:48:11;94577.94;;;5.37;69.10
9774;BME280;4926;42.670;23.316;2023-11-19T11:50:50;94581.38;;;5.38;69.43
9774;BME280;4926;42.670;23.316;2023-11-19T11:53:17;94584.34;;;5.46;69.49
9774;BME280;4926;42.670;23.316;2023-11-19T11:55:55;94564.78;;;5.42;69.35
9774;BME280;4926;42.670;23.316;2023-11-19T11:58:31;94579.09;;;5.51;69.04
9774;BME280;4926;42.670;23.316;2023-11-19T12:01:04;94589.09;;;5.44;69.29
9774;BME280;4926;42.670;23.316;2023-11-19T12:03:33;94589.59;;;5.41;69.24
9774;BME280;4926;42.670;23.316;2023-11-19T12:06:00;94586.13;;;5.36;69.24
9774;BME280;4926;42.670;23.316;2023-11-19T12:08:30;94577.50;;;5.45;68.88
9774;BME280;4926;42.670;23.316;2023-11-19T12:10:58;94560.03;;;5.44;68.85
9774;BME280;4926;42.670;23.316;2023-11-19T12:13:42;94560.13;;;5.54;68.64
9774;BME280;4926;42.670;23.316;2023-11-19T12:16:10;94565.44;;;5.59;68.52
9774;BME280;4926;42.670;23.316;2023-11-19T12:18:40;94554.88;;;5.59;68.62
9774;BME280;4926;42.670;23.316;2023-11-19T12:21:08;94549.31;;;5.56;68.65
9774;BME280;4926;42.670;23.316;2023-11-19T12:23:44;94547.00;;;5.69;68.60
9774;BME280;4926;42.670;23.316;2023-11-19T12:26:21;94551.75;;;5.72;68.41
9774;BME280;4926;42.670;23.316;2023-11-19T12:28:57;94544.13;;;5.76;68.09
9774;BME280;4926;42.670;23.316;2023-11-19T12:31:24;94539.34;;;5.73;67.71
9774;BME280;4926;42.670;23.316;2023-11-19T12:33:53;94537.53;;;5.74;68.48
9774;BME280;4926;42.670;23.316;2023-11-19T12:36:20;94535.75;;;5.84;67.85
9774;BME280;4926;42.670;23.316;2023-11-19T12:38:47;94534.44;;;5.92;67.82
9774;BME280;4926;42.670;23.316;2023-11-19T12:41:15;94532.88;;;5.91;67.88
9774;BME280;4926;42.670;23.316;2023-11-19T12:43:49;94520.69;;;5.85;68.88
9774;BME280;4926;42.670;23.316;2023-11-19T12:46:17;94534.72;;;5.90;69.13
9774;BME280;4926;42.670;23.316;2023-11-19T12:48:45;94519.94;;;5.89;69.12
9774;BME280;4926;42.670;23.316;2023-11-19T12:51:13;94524.38;;;5.84;69.14
9774;BME280;4926;42.670;23.316;2023-11-19T12:53:47;94521.16;;;5.82;69.26
9774;BME280;4926;42.670;23.316;2023-11-19T12:56:18;94524.31;;;5.74;69.74
9774;BME280;4926;42.670;23.316;2023-11-19T12:58:45;94527.47;;;5.76;70.00
9774;BME280;4926;42.670;23.316;2023-11-19T13:01:16;94521.41;;;5.75;69.90
9774;BME280;4926;42.670;23.316;2023-11-19T13:03:44;94521.69;;;5.79;70.19
9774;BME280;4926;42.670;23.316;2023-11-19T13:06:15;94514.31;;;5.81;70.31
9774;BME280;4926;42.670;23.316;2023-11-19T13:08:47;94519.66;;;5.86;69.95
9774;BME280;4926;42.670;23.316;2023-11-19T13:11:30;94515.88;;;5.82;69.92
9774;BME280;4926;42.670;23.316;2023-11-19T13:13:58;94506.94;;;5.83;70.39
9774;BME280;4926;42.670;23.316;2023-11-19T13:16:26;94522.84;;;5.93;70.25
9774;BME280;4926;42.670;23.316;2023-11-19T13:18:53;94517.03;;;5.96;70.33
9774;BME280;4926;42.670;23.316;2023-11-19T13:21:21;94515.47;;;5.95;69.73
9774;BME280;4926;42.670;23.316;2023-11-19T13:23:48;94503.28;;;5.94;69.97
9774;BME280;4926;42.670;23.316;2023-11-19T13:26:15;94493.78;;;5.93;69.63
9774;BME280;4926;42.670;23.316;2023-11-19T13:28:42;94492.97;;;5.92;69.52
9774;BME280;4926;42.670;23.316;2023-11-19T13:31:09;94493.53;;;5.99;69.20
9774;BME280;4926;42.670;23.316;2023-11-19T13:33:36;94498.81;;;5.99;69.24
9774;BME280;4926;42.670;23.316;2023-11-19T13:36:04;94502.00;;;6.06;69.34